Weather at Gabrovnitsa Air Base [CLOSED]

Public forecast

Using degrees Celsius for public forecast. Weather courtesy of forecast.io.

Closest aviation weather report (METAR) to Gabrovnitsa Air Base

Closest report is Sofia Airport, 51.3 nm (94.9 km) S. Retrieved 2022/06/28 12:30 UTC (1 minute ago):

LBSF 281230Z VRB03KT 9999 FEW063 29/14 Q1018 NOSIG

Closest aviation forecast (TAF) to Gabrovnitsa Air Base

Closest forecast is Sofia Airport, 51.3 nm (94.9 km) S. Retrieved 2022/06/28 12:17 UTC (14 minutes ago):

TAF LBSF 281100Z 2812/2912 03010KT 9999 SCT060 TEMPO 2813/2817 VRB15G25KT 4000 TSRA SCT040CB BKN050 BECMG 2819/2821 VRB04KT TEMPO 2902/2905 3000 BR SCT007